Time;durP1;ratioP1;P1;durP2;ratioP2;P2;SDS_P1;SDS_P2;PMS_P1;PMS_P2;Temp;Humidity;BMP_temperature;BMP_pressure;BME280_temperature;BME280_humidity;BME280_pressure;Samples;Min_cycle;Max_cycle;Signal;HPM_P1;HPM_P2
2023/10/21 00:00:21;;;;;;;;;;;;;;;10.61;100.00;98283.91;4935438;29;19957;-78
2023/10/21 00:03:07;;;;;;;;;;;;;;;10.57;100.00;98289.47;4933471;29;20293;-78
2023/10/21 00:05:53;;;;;;;;;;;;;;;10.54;100.00;98283.59;4909807;29;19942;-77
2023/10/21 00:08:38;;;;;;;;;;;;;;;10.51;100.00;98289.16;4936808;29;20013;-78
2023/10/21 00:11:25;;;;;;;;;;;;;;;10.48;100.00;98295.56;4935711;29;19986;-78
2023/10/21 00:14:13;;;;;;;;;;;;;;;10.46;100.00;98298.31;4939353;28;19926;-78
2023/10/21 00:16:59;;;;;;;;;;;;;;;10.48;100.00;98300.00;4934550;29;22024;-78
2023/10/21 00:19:44;;;;;;;;;;;;;;;10.46;100.00;98308.91;4933980;29;19937;-77
2023/10/21 00:22:30;;;;;;;;;;;;;;;10.48;100.00;98310.56;4933414;29;20411;-78
2023/10/21 00:25:15;;;;;;;;;;;;;;;10.46;100.00;98314.19;4932639;28;21888;-77
2023/10/21 00:28:03;;;;;;;;;;;;;;;10.42;100.00;98312.75;4912298;29;19982;-78
2023/10/21 00:30:49;;;;;;;;;;;;;;;10.40;100.00;98313.88;4924594;29;20397;-78
2023/10/21 00:33:35;;;;;;;;;;;;;;;10.36;100.00;98318.56;4929942;28;20464;-78
2023/10/21 00:36:20;;;;;;;;;;;;;;;10.33;100.00;98326.75;4929912;29;19989;-78
2023/10/21 00:39:10;;;;;;;;;;;;;;;10.31;100.00;98326.06;4916560;29;20654;-78
2023/10/21 00:41:56;;;;;;;;;;;;;;;10.29;100.00;98325.31;4904618;29;19935;-78
2023/10/21 00:44:42;;;;;;;;;;;;;;;10.25;100.00;98332.69;4929207;29;19930;-77
2023/10/21 00:47:27;;;;;;;;;;;;;;;10.22;100.00;98334.75;4929193;29;20512;-78
2023/10/21 00:50:13;;;;;;;;;;;;;;;10.21;100.00;98338.34;4929579;29;20006;-77
2023/10/21 00:52:59;;;;;;;;;;;;;;;10.17;100.00;98346.56;4929136;29;19993;-77
2023/10/21 00:55:44;;;;;;;;;;;;;;;10.13;100.00;98346.97;4914530;29;19945;-79
2023/10/21 00:58:33;;;;;;;;;;;;;;;10.07;100.00;98350.94;4929685;29;19935;-79
2023/10/21 01:01:18;;;;;;;;;;;;;;;10.04;100.00;98352.03;4929628;29;19930;-78
2023/10/21 01:04:05;;;;;;;;;;;;;;;9.98;100.00;98354.34;4929623;29;20014;-79
2023/10/21 01:06:51;;;;;;;;;;;;;;;9.94;100.00;98360.84;4917203;29;19973;-79
2023/10/21 01:09:36;;;;;;;;;;;;;;;9.90;100.00;98361.09;4915637;29;20021;-78
2023/10/21 01:12:22;;;;;;;;;;;;;;;9.89;100.00;98362.06;4929340;29;19934;-79
2023/10/21 01:15:08;;;;;;;;;;;;;;;9.87;100.00;98366.63;4929423;29;19937;-79
2023/10/21 01:17:53;;;;;;;;;;;;;;;9.85;100.00;98381.78;4930231;28;19937;-78
2023/10/21 01:20:41;;;;;;;;;;;;;;;9.84;100.00;98387.19;4929731;29;20061;-78
2023/10/21 01:23:27;;;;;;;;;;;;;;;9.82;100.00;98389.97;4930902;28;20709;-79
2023/10/21 01:26:13;;;;;;;;;;;;;;;9.80;100.00;98386.59;4929261;29;19935;-79
2023/10/21 01:28:58;;;;;;;;;;;;;;;9.78;100.00;98389.38;4927961;29;19931;-78
2023/10/21 01:31:44;;;;;;;;;;;;;;;9.76;100.00;98388.66;4914803;29;19931;-78
2023/10/21 01:34:29;;;;;;;;;;;;;;;9.76;100.00;98403.69;4928422;29;19937;-78
2023/10/21 01:37:15;;;;;;;;;;;;;;;9.76;100.00;98395.75;4913830;29;20457;-78
2023/10/21 01:40:01;;;;;;;;;;;;;;;9.75;100.00;98405.47;4929668;29;19981;-78
2023/10/21 01:42:47;;;;;;;;;;;;;;;9.74;100.00;98414.38;4929123;29;20021;-79
2023/10/21 01:45:36;;;;;;;;;;;;;;;9.74;100.00;98409.09;4928950;29;19962;-79
2023/10/21 01:48:22;;;;;;;;;;;;;;;9.77;100.00;98419.38;4913228;29;20400;-78
2023/10/21 01:51:08;;;;;;;;;;;;;;;9.75;100.00;98423.16;4929109;28;20382;-79
2023/10/21 01:53:54;;;;;;;;;;;;;;;9.73;100.00;98419.75;4931546;28;20042;-79
2023/10/21 01:56:39;;;;;;;;;;;;;;;9.71;100.00;98422.56;4927810;29;20025;-79
2023/10/21 01:59:25;;;;;;;;;;;;;;;9.69;100.00;98416.53;4928402;29;19931;-78
2023/10/21 02:02:11;;;;;;;;;;;;;;;9.69;100.00;98424.47;4930240;29;20090;-79
2023/10/21 02:04:57;;;;;;;;;;;;;;;9.68;100.00;98422.78;4912394;29;19973;-79
2023/10/21 02:07:42;;;;;;;;;;;;;;;9.67;100.00;98433.47;4928856;29;20303;-78
2023/10/21 02:10:28;;;;;;;;;;;;;;;9.64;100.00;98434.53;4913840;29;19930;-78
2023/10/21 02:13:13;;;;;;;;;;;;;;;9.62;100.00;98441.75;4912681;29;19985;-78
2023/10/21 02:15:59;;;;;;;;;;;;;;;9.62;100.00;98447.03;4928887;28;19931;-78
2023/10/21 02:18:45;;;;;;;;;;;;;;;9.63;100.00;98461.94;4927372;29;19934;-79
2023/10/21 02:21:30;;;;;;;;;;;;;;;9.62;100.00;98463.75;4927236;29;20301;-78
2023/10/21 02:24:16;;;;;;;;;;;;;;;9.64;100.00;98467.09;4929325;29;19931;-78
2023/10/21 02:27:02;;;;;;;;;;;;;;;9.64;100.00;98469.75;4917021;29;19941;-78
2023/10/21 02:29:49;;;;;;;;;;;;;;;9.64;100.00;98476.81;4926229;29;19961;-78
2023/10/21 02:32:35;;;;;;;;;;;;;;;9.63;100.00;98486.56;4928285;28;19981;-79
2023/10/21 02:35:21;;;;;;;;;;;;;;;9.63;100.00;98472.50;4927186;29;19981;-79
2023/10/21 02:38:06;;;;;;;;;;;;;;;9.62;100.00;98473.47;4913515;29;20298;-78
2023/10/21 02:40:52;;;;;;;;;;;;;;;9.61;100.00;98477.94;4927450;29;20056;-78
2023/10/21 02:43:37;;;;;;;;;;;;;;;9.62;100.00;98486.69;4926746;29;19945;-78
2023/10/21 02:46:23;;;;;;;;;;;;;;;9.63;100.00;98476.00;4927022;29;20552;-79
2023/10/21 02:49:09;;;;;;;;;;;;;;;9.65;100.00;98483.81;4927424;29;19942;-78
2023/10/21 02:51:55;;;;;;;;;;;;;;;9.66;100.00;98496.06;4928384;28;20030;-78
2023/10/21 02:54:40;;;;;;;;;;;;;;;9.67;100.00;98486.31;4926818;29;19966;-79
2023/10/21 02:57:26;;;;;;;;;;;;;;;9.66;100.00;98496.06;4926946;29;19935;-78
2023/10/21 03:00:15;;;;;;;;;;;;;;;9.64;100.00;98501.44;4928339;28;19934;-78
2023/10/21 03:03:01;;;;;;;;;;;;;;;9.65;100.00;98507.59;4900938;29;19927;-79
2023/10/21 03:05:46;;;;;;;;;;;;;;;9.62;100.00;98506.03;4927227;29;20030;-78
2023/10/21 03:08:32;;;;;;;;;;;;;;;9.62;100.00;98500.75;4914883;29;20581;-78
2023/10/21 03:11:17;;;;;;;;;;;;;;;9.63;100.00;98506.84;4928097;28;19954;-78
2023/10/21 03:14:03;;;;;;;;;;;;;;;9.64;100.00;98509.38;4926279;29;19950;-77
2023/10/21 03:16:49;;;;;;;;;;;;;;;9.63;100.00;98510.34;4927233;28;20705;-79
2023/10/21 03:19:34;;;;;;;;;;;;;;;9.63;100.00;98520.06;4926503;29;19931;-79
2023/10/21 03:22:20;;;;;;;;;;;;;;;9.64;100.00;98525.22;4927308;29;20425;-79
2023/10/21 03:25:06;;;;;;;;;;;;;;;9.64;100.00;98522.59;4912284;29;19930;-78
2023/10/21 03:27:52;;;;;;;;;;;;;;;9.65;100.00;98526.06;4927628;28;19954;-78
2023/10/21 03:30:37;;;;;;;;;;;;;;;9.64;100.00;98519.94;4884756;29;20380;-77
2023/10/21 03:33:24;;;;;;;;;;;;;;;9.64;100.00;98522.59;4891671;29;19935;-78
2023/10/21 03:36:09;;;;;;;;;;;;;;;9.61;100.00;98533.41;4891037;29;19931;-78
2023/10/21 03:38:55;;;;;;;;;;;;;;;9.61;100.00;98535.19;4890211;29;19927;-78
2023/10/21 03:41:42;;;;;;;;;;;;;;;9.59;100.00;98537.13;4891278;29;19931;-78
2023/10/21 03:44:28;;;;;;;;;;;;;;;9.57;100.00;98539.88;4891246;29;20359;-78
2023/10/21 03:47:14;;;;;;;;;;;;;;;9.55;100.00;98541.81;4883583;29;20504;-78
2023/10/21 03:49:59;;;;;;;;;;;;;;;9.55;100.00;98556.81;4891796;29;21990;-78
2023/10/21 03:52:45;;;;;;;;;;;;;;;9.52;100.00;98547.31;4894591;29;20379;-78
2023/10/21 03:55:30;;;;;;;;;;;;;;;9.50;100.00;98552.69;4890795;29;19964;-78
2023/10/21 03:58:16;;;;;;;;;;;;;;;9.48;100.00;98564.38;4890809;29;19999;-78
2023/10/21 04:01:02;;;;;;;;;;;;;;;9.47;100.00;98560.03;4890363;29;19931;-78
2023/10/21 04:03:47;;;;;;;;;;;;;;;9.46;100.00;98563.63;4891141;29;19995;-78
2023/10/21 04:06:33;;;;;;;;;;;;;;;9.45;100.00;98577.81;4893247;29;19935;-78
2023/10/21 04:09:20;;;;;;;;;;;;;;;9.44;100.00;98570.84;4895650;29;19926;-77
2023/10/21 04:12:05;;;;;;;;;;;;;;;9.43;100.00;98577.09;4895017;29;19934;-79
2023/10/21 04:14:51;;;;;;;;;;;;;;;9.41;100.00;98582.47;4895808;29;19942;-78
2023/10/21 04:17:37;;;;;;;;;;;;;;;9.38;100.00;98588.84;4893333;29;19939;-78
2023/10/21 04:20:23;;;;;;;;;;;;;;;9.37;100.00;98595.09;4891142;29;19935;-78
2023/10/21 04:23:08;;;;;;;;;;;;;;;9.37;100.00;98589.78;4888078;29;19942;-78
2023/10/21 04:25:54;;;;;;;;;;;;;;;9.35;100.00;98594.38;4896460;29;19931;-78
2023/10/21 04:28:39;;;;;;;;;;;;;;;9.34;100.00;98595.31;4894086;29;20027;-78
2023/10/21 04:31:25;;;;;;;;;;;;;;;9.32;100.00;98599.03;4928489;29;19939;-77
2023/10/21 04:34:11;;;;;;;;;;;;;;;9.31;100.00;98608.75;4929223;29;20032;-78
2023/10/21 04:36:57;;;;;;;;;;;;;;;9.29;100.00;98608.03;4930013;29;20378;-78
2023/10/21 04:39:43;;;;;;;;;;;;;;;9.27;100.00;98619.66;4929709;29;19935;-78
2023/10/21 04:42:28;;;;;;;;;;;;;;;9.24;100.00;98618.09;4930208;29;20043;-78
2023/10/21 04:45:14;;;;;;;;;;;;;;;9.23;100.00;98621.69;4928810;29;20005;-78
2023/10/21 04:48:00;;;;;;;;;;;;;;;9.21;100.00;98624.44;4930260;29;19930;-77
2023/10/21 04:50:45;;;;;;;;;;;;;;;9.20;100.00;98627.19;4915432;29;19942;-78
2023/10/21 04:53:31;;;;;;;;;;;;;;;9.22;100.00;98635.84;4916590;29;19934;-77
2023/10/21 04:56:17;;;;;;;;;;;;;;;9.23;100.00;98641.03;4929450;29;19937;-78
2023/10/21 04:59:02;;;;;;;;;;;;;;;9.24;100.00;98642.72;4930263;28;20398;-79
2023/10/21 05:01:48;;;;;;;;;;;;;;;9.25;100.00;98651.44;4931073;28;20073;-77
2023/10/21 05:04:34;;;;;;;;;;;;;;;9.25;100.00;98662.00;4929743;28;19961;-78
2023/10/21 05:07:20;;;;;;;;;;;;;;;9.25;100.00;98662.00;4930981;28;19926;-78
2023/10/21 05:10:05;;;;;;;;;;;;;;;9.26;100.00;98661.06;4917038;29;19957;-78
2023/10/21 05:12:51;;;;;;;;;;;;;;;9.27;100.00;98673.31;4930099;29;19949;-78
2023/10/21 05:15:38;;;;;;;;;;;;;;;9.30;100.00;98678.38;4929231;29;19927;-78
2023/10/21 05:18:24;;;;;;;;;;;;;;;9.29;100.00;98684.59;4929715;28;19933;-78
2023/10/21 05:21:09;;;;;;;;;;;;;;;9.29;100.00;98692.53;4929438;29;19934;-78
2023/10/21 05:23:55;;;;;;;;;;;;;;;9.30;100.00;98693.34;4929382;28;19934;-78
2023/10/21 05:26:41;;;;;;;;;;;;;;;9.29;100.00;98684.59;4929933;28;20054;-78
2023/10/21 05:29:27;;;;;;;;;;;;;;;9.30;100.00;98696.84;4927630;29;20375;-78
2023/10/21 05:32:14;;;;;;;;;;;;;;;9.30;100.00;98698.63;4929357;29;20006;-78
2023/10/21 05:35:00;;;;;;;;;;;;;;;9.30;100.00;98704.78;4928749;29;20022;-78
2023/10/21 05:37:45;;;;;;;;;;;;;;;9.30;100.00;98710.06;4928602;29;19934;-78
2023/10/21 05:40:31;;;;;;;;;;;;;;;9.29;100.00;98708.38;4921798;28;19937;-78
2023/10/21 05:43:17;;;;;;;;;;;;;;;9.28;100.00;98705.84;4929443;29;19942;-78
2023/10/21 05:46:03;;;;;;;;;;;;;;;9.26;100.00;98715.69;4928831;28;19930;-78
2023/10/21 05:48:48;;;;;;;;;;;;;;;9.20;100.00;98723.09;4928582;29;20002;-78
2023/10/21 05:51:34;;;;;;;;;;;;;;;9.17;100.00;98738.31;4930712;28;19935;-78
2023/10/21 05:54:19;;;;;;;;;;;;;;;9.14;100.00;98735.91;4914230;29;19930;-78
2023/10/21 05:57:05;;;;;;;;;;;;;;;9.13;100.00;98742.97;4928700;28;20022;-78
2023/10/21 05:59:51;;;;;;;;;;;;;;;9.17;100.00;98751.50;4929483;28;19930;-78
2023/10/21 06:02:36;;;;;;;;;;;;;;;9.19;100.00;98758.38;4928485;28;19930;-78
2023/10/21 06:05:23;;;;;;;;;;;;;;;9.21;100.00;98760.91;4928317;29;19926;-78
2023/10/21 06:08:08;;;;;;;;;;;;;;;9.21;100.00;98761.72;4929092;29;19931;-78
2023/10/21 06:10:54;;;;;;;;;;;;;;;9.19;100.00;98761.00;4929262;28;19930;-78
2023/10/21 06:13:40;;;;;;;;;;;;;;;9.20;100.00;98764.47;4929774;28;20030;-78
2023/10/21 06:16:25;;;;;;;;;;;;;;;9.19;100.00;98768.94;4914308;29;20390;-78
2023/10/21 06:19:11;;;;;;;;;;;;;;;9.19;100.00;98770.72;4928320;28;20354;-79
2023/10/21 06:21:58;;;;;;;;;;;;;;;9.20;100.00;98770.63;4927162;29;20214;-78
2023/10/21 06:24:45;;;;;;;;;;;;;;;9.21;100.00;98793.41;4912958;29;19937;-78
2023/10/21 06:27:30;;;;;;;;;;;;;;;9.23;100.00;98795.94;4913188;29;21164;-78
2023/10/21 06:30:16;;;;;;;;;;;;;;;9.24;100.00;98793.22;4925111;29;20806;-78
2023/10/21 06:33:03;;;;;;;;;;;;;;;9.28;100.00;98799.09;4928816;29;19927;-78
2023/10/21 06:35:49;;;;;;;;;;;;;;;9.31;100.00;98804.16;4914245;29;19970;-78
2023/10/21 06:38:35;;;;;;;;;;;;;;;9.31;100.00;98812.06;4914662;29;19942;-78
2023/10/21 06:41:21;;;;;;;;;;;;;;;9.32;100.00;98821.69;4925781;29;19934;-78
2023/10/21 06:44:08;;;;;;;;;;;;;;;9.34;100.00;98826.84;4928868;29;19962;-78
2023/10/21 06:46:53;;;;;;;;;;;;;;;9.34;100.00;98830.34;4927999;29;20028;-78
2023/10/21 06:49:39;;;;;;;;;;;;;;;9.33;100.00;98828.66;4929232;29;19938;-77
2023/10/21 06:52:25;;;;;;;;;;;;;;;9.34;100.00;98843.56;4928334;28;19931;-78
2023/10/21 06:55:10;;;;;;;;;;;;;;;9.38;100.00;98846.81;4927109;29;20052;-78
2023/10/21 06:57:57;;;;;;;;;;;;;;;9.44;100.00;98850.81;4928682;28;19938;-78
2023/10/21 07:00:42;;;;;;;;;;;;;;;9.49;100.00;98848.69;4899885;29;19935;-78
2023/10/21 07:03:29;;;;;;;;;;;;;;;9.54;100.00;98859.75;4927646;28;19957;-77
2023/10/21 07:06:16;;;;;;;;;;;;;;;9.60;100.00;98867.22;4927103;29;19946;-78
2023/10/21 07:09:02;;;;;;;;;;;;;;;9.68;100.00;98873.72;4926584;29;19939;-79
2023/10/21 07:11:47;;;;;;;;;;;;;;;9.73;100.00;98877.75;4927214;29;19954;-78
2023/10/21 07:14:33;;;;;;;;;;;;;;;9.79;100.00;98879.09;4926506;29;19935;-77
2023/10/21 07:17:19;;;;;;;;;;;;;;;9.83;100.00;98882.34;4913377;28;19935;-78
2023/10/21 07:20:05;;;;;;;;;;;;;;;9.87;100.00;98884.63;4928058;29;20021;-78
2023/10/21 07:22:51;;;;;;;;;;;;;;;9.91;100.00;98891.41;4912778;29;20809;-77
2023/10/21 07:25:37;;;;;;;;;;;;;;;9.97;100.00;98894.56;4927221;29;20284;-77
2023/10/21 07:28:23;;;;;;;;;;;;;;;10.02;100.00;98897.72;4926751;29;20358;-78
2023/10/21 07:31:09;;;;;;;;;;;;;;;10.08;100.00;98907.78;4911933;29;19993;-78
2023/10/21 07:33:55;;;;;;;;;;;;;;;10.12;100.00;98903.97;4924830;29;19965;-78
2023/10/21 07:36:41;;;;;;;;;;;;;;;10.16;100.00;98909.88;4927050;29;19930;-78
2023/10/21 07:39:26;;;;;;;;;;;;;;;10.21;100.00;98912.19;4913054;29;19930;-78
2023/10/21 07:42:13;;;;;;;;;;;;;;;10.24;100.00;98912.78;4926963;29;20531;-77
2023/10/21 07:44:58;;;;;;;;;;;;;;;10.31;100.00;98915.84;4911409;29;20033;-78
2023/10/21 07:47:45;;;;;;;;;;;;;;;10.40;100.00;98922.25;4927517;28;20369;-77
2023/10/21 07:50:31;;;;;;;;;;;;;;;10.45;100.00;98915.66;4926328;29;20558;-77
2023/10/21 07:53:17;;;;;;;;;;;;;;;10.48;100.00;98919.03;4910381;29;20369;-78
2023/10/21 07:56:03;;;;;;;;;;;;;;;10.52;100.00;98923.13;4925795;29;20310;-78
2023/10/21 07:58:48;;;;;;;;;;;;;;;10.52;100.00;98928.44;4925726;29;20365;-79
2023/10/21 08:01:34;;;;;;;;;;;;;;;10.55;100.00;98922.91;4926381;29;19930;-78
2023/10/21 08:04:20;;;;;;;;;;;;;;;10.56;100.00;98933.38;4912237;28;19938;-77
2023/10/21 08:07:05;;;;;;;;;;;;;;;10.60;100.00;98931.34;4926265;28;21791;-77
2023/10/21 08:09:52;;;;;;;;;;;;;;;10.63;100.00;98944.34;4926687;29;19931;-77
2023/10/21 08:12:37;;;;;;;;;;;;;;;10.67;100.00;98945.78;4925531;29;19950;-78
2023/10/21 08:15:24;;;;;;;;;;;;;;;10.70;100.00;98940.28;4925369;29;19935;-78
2023/10/21 08:18:09;;;;;;;;;;;;;;;10.76;100.00;98949.53;4927400;28;19931;-78
2023/10/21 08:20:55;;;;;;;;;;;;;;;10.79;100.00;98943.16;4927316;29;19941;-77
2023/10/21 08:23:41;;;;;;;;;;;;;;;10.84;100.00;98962.19;4925375;29;19970;-78
2023/10/21 08:26:28;;;;;;;;;;;;;;;10.88;100.00;98955.69;4914349;29;19978;-78
2023/10/21 08:29:14;;;;;;;;;;;;;;;10.93;100.00;98955.31;4926321;29;19931;-77
2023/10/21 08:32:00;;;;;;;;;;;;;;;10.96;100.00;98958.56;4924900;29;19934;-77
2023/10/21 08:34:46;;;;;;;;;;;;;;;11.00;100.00;98959.19;4910702;29;19927;-78
2023/10/21 08:37:32;;;;;;;;;;;;;;;11.05;100.00;98961.50;4926433;29;19934;-78
2023/10/21 08:40:18;;;;;;;;;;;;;;;11.09;100.00;98961.13;4926678;29;20299;-78
2023/10/21 08:43:04;;;;;;;;;;;;;;;11.15;100.00;98965.09;4917297;29;19931;-78
2023/10/21 08:45:49;;;;;;;;;;;;;;;11.19;100.00;98965.69;4910252;29;20598;-78
2023/10/21 08:48:35;;;;;;;;;;;;;;;11.21;100.00;98954.03;4910330;29;19954;-78
2023/10/21 08:51:21;;;;;;;;;;;;;;;11.25;100.00;98963.44;4925871;29;19942;-78
2023/10/21 08:54:06;;;;;;;;;;;;;;;11.34;100.00;98979.56;4926726;29;19934;-78
2023/10/21 08:56:52;;;;;;;;;;;;;;;11.39;100.00;98982.69;4929563;29;19926;-78
2023/10/21 08:59:38;;;;;;;;;;;;;;;11.45;100.00;98976.94;4927664;29;19926;-78
2023/10/21 09:02:25;;;;;;;;;;;;;;;11.50;100.00;98980.03;4916392;28;19930;-78
2023/10/21 09:05:11;;;;;;;;;;;;;;;11.52;100.00;98988.72;4914993;29;20313;-77
2023/10/21 09:07:58;;;;;;;;;;;;;;;11.54;100.00;98994.72;4914072;29;19935;-78
2023/10/21 09:10:46;;;;;;;;;;;;;;;11.56;100.00;98994.63;4916192;28;19937;-78
2023/10/21 09:13:35;;;;;;;;;;;;;;;11.61;100.00;98995.06;4913670;29;20406;-78
2023/10/21 09:16:25;;;;;;;;;;;;;;;11.66;100.00;98995.56;4929503;29;19927;-78
2023/10/21 09:19:11;;;;;;;;;;;;;;;11.72;100.00;98998.69;4915656;29;20365;-77
2023/10/21 09:21:58;;;;;;;;;;;;;;;11.73;100.00;99005.69;4927485;29;19938;-78
2023/10/21 09:24:43;;;;;;;;;;;;;;;11.77;100.00;99015.91;4909313;29;19978;-78
2023/10/21 09:27:29;;;;;;;;;;;;;;;11.82;100.00;99021.69;4929906;28;19935;-78
2023/10/21 09:30:17;;;;;;;;;;;;;;;11.87;100.00;99034.56;4928856;29;19937;-78
2023/10/21 09:33:04;;;;;;;;;;;;;;;11.89;100.00;99040.63;4913012;29;19936;-77
2023/10/21 09:36:00;;;;;;;;;;;;;;;11.90;100.00;99044.97;4912673;29;19938;-78
2023/10/21 09:38:46;;;;;;;;;;;;;;;11.93;100.00;99041.22;4928737;29;19931;-78
2023/10/21 09:41:32;;;;;;;;;;;;;;;11.97;100.00;99047.94;4915595;28;19937;-78
2023/10/21 09:44:18;;;;;;;;;;;;;;;12.00;100.00;99060.13;4913542;29;19934;-78
2023/10/21 09:47:04;;;;;;;;;;;;;;;12.02;100.00;99058.19;4913339;29;19931;-78
2023/10/21 09:49:50;;;;;;;;;;;;;;;12.00;100.00;99065.44;4916650;28;20019;-78
2023/10/21 09:52:51;;;;;;;;;;;;;;;12.00;100.00;99060.13;4927884;29;20477;-77
2023/10/21 09:55:39;;;;;;;;;;;;;;;11.97;100.00;99076.28;4913874;29;20110;-78
2023/10/21 09:58:27;;;;;;;;;;;;;;;11.95;100.00;99079.88;4913988;28;19931;-78
2023/10/21 10:01:12;;;;;;;;;;;;;;;11.93;100.00;99087.13;4917634;29;19927;-78
2023/10/21 10:03:59;;;;;;;;;;;;;;;11.91;100.00;99099.69;4914128;29;19931;-78
2023/10/21 10:06:45;;;;;;;;;;;;;;;11.88;100.00;99096.44;4913443;29;20335;-78
2023/10/21 10:09:30;;;;;;;;;;;;;;;11.85;100.00;99099.31;4913869;29;19931;-79
2023/10/21 10:12:17;;;;;;;;;;;;;;;11.84;100.00;99102.91;4912668;29;19946;-78
2023/10/21 10:15:23;;;;;;;;;;;;;;;11.82;100.00;99108.34;4928536;29;19930;-79
2023/10/21 10:18:19;;;;;;;;;;;;;;;11.81;100.00;99109.31;4926941;29;19931;-79
2023/10/21 10:21:05;;;;;;;;;;;;;;;11.84;100.00;99110.88;4912419;29;19935;-79
2023/10/21 10:23:51;;;;;;;;;;;;;;;11.86;100.00;99117.75;4913593;29;19965;-79
2023/10/21 10:26:37;;;;;;;;;;;;;;;11.89;100.00;99111.38;4928639;28;19931;-79
2023/10/21 10:29:26;;;;;;;;;;;;;;;11.91;100.00;99114.72;4927704;29;19978;-79
2023/10/21 10:32:14;;;;;;;;;;;;;;;11.92;100.00;99127.88;4912669;29;20399;-78
2023/10/21 10:35:01;;;;;;;;;;;;;;;11.92;100.00;99130.53;4926611;29;19941;-79
2023/10/21 10:37:50;;;;;;;;;;;;;;;11.96;100.00;99133.78;4929129;28;19934;-79
2023/10/21 10:40:36;;;;;;;;;;;;;;;12.01;100.00;99134.28;4913332;29;19926;-78
2023/10/21 10:43:22;;;;;;;;;;;;;;;12.00;100.00;99151.16;4912853;29;19927;-79
2023/10/21 10:46:07;;;;;;;;;;;;;;;11.95;100.00;99151.50;4918893;29;19931;-78
2023/10/21 10:48:53;;;;;;;;;;;;;;;11.91;100.00;99157.16;4927821;29;19990;-79
2023/10/21 10:51:45;;;;;;;;;;;;;;;11.91;100.00;99157.16;4926993;29;19941;-80
2023/10/21 10:54:30;;;;;;;;;;;;;;;12.00;100.00;99155.59;4928172;28;19962;-79
2023/10/21 10:57:16;;;;;;;;;;;;;;;12.07;100.00;99157.69;4927738;29;19942;-79
2023/10/21 11:00:03;;;;;;;;;;;;;;;12.13;100.00;99161.66;4927444;29;19926;-78
2023/10/21 11:02:49;;;;;;;;;;;;;;;12.16;100.00;99164.06;4928559;28;19984;-78
2023/10/21 11:05:37;;;;;;;;;;;;;;;12.19;100.00;99170.94;4910756;29;19961;-78
2023/10/21 11:08:23;;;;;;;;;;;;;;;12.31;100.00;99169.13;4915139;29;20405;-78
2023/10/21 11:11:10;;;;;;;;;;;;;;;12.44;100.00;99172.50;4913280;28;19926;-78
2023/10/21 11:13:56;;;;;;;;;;;;;;;12.50;100.00;99169.31;4901132;29;19927;-78
2023/10/21 11:16:42;;;;;;;;;;;;;;;12.46;100.00;99180.31;4926888;29;19931;-78
2023/10/21 11:19:28;;;;;;;;;;;;;;;12.38;100.00;99185.41;4913958;29;20033;-78
2023/10/21 11:22:26;;;;;;;;;;;;;;;12.31;100.00;99193.84;4906233;29;19934;-78
2023/10/21 11:25:12;;;;;;;;;;;;;;;12.23;100.00;99193.63;4912350;29;19980;-78
2023/10/21 11:27:57;;;;;;;;;;;;;;;12.16;100.00;99198.53;4926273;29;19941;-78
2023/10/21 11:30:43;;;;;;;;;;;;;;;12.10;100.00;99204.34;4911907;29;19935;-78
2023/10/21 11:33:29;;;;;;;;;;;;;;;12.05;100.00;99211.81;4907995;29;20394;-78
2023/10/21 11:36:16;;;;;;;;;;;;;;;12.02;100.00;99214.66;4910702;29;19933;-77
2023/10/21 11:39:03;;;;;;;;;;;;;;;12.00;100.00;99213.94;4910302;29;19926;-78
2023/10/21 11:41:49;;;;;;;;;;;;;;;11.96;100.00;99213.34;4911764;29;19934;-77
2023/10/21 11:44:34;;;;;;;;;;;;;;;11.96;100.00;99221.28;4927162;29;19937;-78
2023/10/21 11:47:22;;;;;;;;;;;;;;;11.95;100.00;99209.00;4925936;29;19935;-79
2023/10/21 11:50:09;;;;;;;;;;;;;;;11.95;100.00;99232.88;4905462;29;20832;-77
2023/10/21 11:52:54;;;;;;;;;;;;;;;11.96;100.00;99229.25;4926712;29;19942;-77
2023/10/21 12:34:35;;;;;;;;;;;;;;;12.33;100.00;99287.44;4929501;28;19931;-77
2023/10/21 12:49:20;;;;;;;;;;;;;;;12.29;100.00;99299.28;4917041;29;19986;-77
2023/10/21 12:52:11;;;;;;;;;;;;;;;12.30;100.00;99308.91;4930596;28;19931;-77
2023/10/21 12:54:56;;;;;;;;;;;;;;;12.31;100.00;99304.47;4929151;29;19945;-77
2023/10/21 12:57:43;;;;;;;;;;;;;;;12.31;100.00;99312.44;4930707;28;20392;-76
2023/10/21 13:00:29;;;;;;;;;;;;;;;12.28;100.00;99305.53;4929789;28;19978;-77
2023/10/21 13:03:15;;;;;;;;;;;;;;;12.27;100.00;99322.44;4913817;29;19926;-77
2023/10/21 13:06:00;;;;;;;;;;;;;;;12.23;100.00;99313.00;4921268;29;21026;-76
2023/10/21 13:08:46;;;;;;;;;;;;;;;12.22;100.00;99319.28;4927533;29;19934;-76
2023/10/21 13:11:31;;;;;;;;;;;;;;;12.21;100.00;99323.72;4929907;28;19930;-77
2023/10/21 13:14:17;;;;;;;;;;;;;;;12.24;100.00;99320.00;4928250;29;19934;-76
2023/10/21 13:17:07;;;;;;;;;;;;;;;12.29;100.00;99330.25;4913817;29;20004;-77
2023/10/21 13:19:53;;;;;;;;;;;;;;;12.33;100.00;99316.63;4915624;29;19934;-77
2023/10/21 13:22:39;;;;;;;;;;;;;;;12.36;100.00;99320.84;4912695;29;19927;-77
2023/10/21 13:25:25;;;;;;;;;;;;;;;12.41;100.00;99318.69;4928396;29;19935;-77
2023/10/21 13:28:10;;;;;;;;;;;;;;;12.44;100.00;99315.81;4904095;29;19931;-77
2023/10/21 13:30:57;;;;;;;;;;;;;;;12.45;100.00;99314.00;4927603;29;19930;-77
2023/10/21 13:33:42;;;;;;;;;;;;;;;12.44;100.00;99314.97;4929088;29;19931;-76
2023/10/21 13:36:29;;;;;;;;;;;;;;;12.42;100.00;99315.06;4929577;29;19978;-76
2023/10/21 13:39:22;;;;;;;;;;;;;;;12.40;100.00;99317.00;4928383;29;19931;-77
2023/10/21 13:42:07;;;;;;;;;;;;;;;12.38;100.00;99310.13;4928231;29;20029;-77
2023/10/21 13:44:53;;;;;;;;;;;;;;;12.35;100.00;99306.75;4929578;29;19941;-77
2023/10/21 13:47:38;;;;;;;;;;;;;;;12.32;100.00;99309.63;4929052;29;19941;-77
2023/10/21 13:50:24;;;;;;;;;;;;;;;12.33;100.00;99308.66;4911828;29;19939;-76
2023/10/21 13:53:17;;;;;;;;;;;;;;;12.31;100.00;99310.59;4929627;28;20021;-77
2023/10/21 13:56:06;;;;;;;;;;;;;;;12.28;100.00;99313.50;4928422;29;20456;-76
2023/10/21 13:58:53;;;;;;;;;;;;;;;12.25;100.00;99308.41;4902082;29;19933;-76
2023/10/21 14:01:41;;;;;;;;;;;;;;;12.22;100.00;99313.97;4927799;28;20765;-77
2023/10/21 14:04:27;;;;;;;;;;;;;;;12.20;100.00;99315.91;4927876;29;20499;-76
2023/10/21 14:07:13;;;;;;;;;;;;;;;12.18;100.00;99316.03;4929124;28;19934;-76
2023/10/21 14:09:59;;;;;;;;;;;;;;;12.15;100.00;99316.25;4927490;29;20293;-77
2023/10/21 14:12:44;;;;;;;;;;;;;;;12.16;100.00;99319.75;4927905;29;19927;-76
2023/10/21 14:15:31;;;;;;;;;;;;;;;12.16;100.00;99327.72;4929522;28;19949;-76
2023/10/21 14:18:16;;;;;;;;;;;;;;;12.16;100.00;99323.22;4914971;29;19934;-76
2023/10/21 14:21:02;;;;;;;;;;;;;;;12.18;100.00;99331.06;4927681;29;20757;-77
2023/10/21 14:23:48;;;;;;;;;;;;;;;12.20;100.00;99329.19;4912490;29;19966;-76
2023/10/21 14:26:34;;;;;;;;;;;;;;;12.20;100.00;99326.53;4927217;29;19931;-76
2023/10/21 14:29:19;;;;;;;;;;;;;;;12.21;100.00;99333.50;4912952;29;19953;-76
2023/10/21 14:32:06;;;;;;;;;;;;;;;12.21;100.00;99330.88;4925072;29;19934;-76
2023/10/21 14:34:53;;;;;;;;;;;;;;;12.22;100.00;99337.84;4928404;29;20040;-77
2023/10/21 14:37:38;;;;;;;;;;;;;;;12.24;100.00;99329.78;4919526;29;20378;-76
2023/10/21 14:40:25;;;;;;;;;;;;;;;12.23;100.00;99331.59;4912842;29;20019;-76
2023/10/21 14:43:11;;;;;;;;;;;;;;;12.23;100.00;99344.84;4928410;28;20390;-77
2023/10/21 14:45:57;;;;;;;;;;;;;;;12.20;100.00;99337.13;4926664;29;19985;-76
2023/10/21 14:48:42;;;;;;;;;;;;;;;12.18;100.00;99347.00;4927244;28;19937;-77
2023/10/21 14:51:30;;;;;;;;;;;;;;;12.15;100.00;99336.63;4928031;28;20886;-76
2023/10/21 14:54:16;;;;;;;;;;;;;;;12.11;100.00;99337.81;4926351;29;20098;-77
2023/10/21 14:57:02;;;;;;;;;;;;;;;12.08;100.00;99345.06;4927623;29;19986;-76
2023/10/21 14:59:47;;;;;;;;;;;;;;;12.03;100.00;99347.19;4929411;28;19934;-76
2023/10/21 15:02:33;;;;;;;;;;;;;;;11.98;100.00;99346.66;4902497;29;19973;-77
2023/10/21 15:05:19;;;;;;;;;;;;;;;11.93;100.00;99341.72;4926021;29;19978;-76
2023/10/21 15:08:05;;;;;;;;;;;;;;;11.87;100.00;99347.47;4924917;29;19934;-76